C613LL CYXU-CYXU
Flight info
| Callsign | C613LL |
|---|---|
| Flight time | 0h 8m |
| Altitude | 2000 |
| Route | |
| Aircraft | C152 |
Departure
| Time | 2026-04-22 02:24 |
|---|---|
| Airport | London International Airport (CYXU) |
Arrival
| Time | 2026-04-22 02:33 |
|---|---|
| Airport | London International Airport (CYXU) |
| Time | Latitude | Longitude | Altitude | Speed | Heading |
|---|---|---|---|---|---|
| 2026-04-22 02:15 | 43.02985 | -81.14974 | 916 ft | 0 kts | 225° |
| 2026-04-22 02:17 | 43.02983 | -81.14984 | 897 ft | 6 kts | 294° |
| 2026-04-22 02:17 | 43.03019 | -81.14952 | 897 ft | 13 kts | 43° |
| 2026-04-22 02:18 | 43.03067 | -81.14932 | 896 ft | 9 kts | 322° |
| 2026-04-22 02:18 | 43.03164 | -81.15043 | 897 ft | 23 kts | 319° |
| 2026-04-22 02:18 | 43.03291 | -81.15196 | 901 ft | 24 kts | 319° |
| 2026-04-22 02:18 | 43.03421 | -81.15350 | 901 ft | 24 kts | 319° |
| 2026-04-22 02:19 | 43.03551 | -81.15507 | 898 ft | 27 kts | 318° |
| 2026-04-22 02:19 | 43.03692 | -81.15679 | 898 ft | 27 kts | 318° |
| 2026-04-22 02:19 | 43.03829 | -81.15845 | 899 ft | 25 kts | 319° |
| 2026-04-22 02:19 | 43.03954 | -81.15991 | 901 ft | 21 kts | 322° |
| 2026-04-22 02:20 | 43.04003 | -81.16015 | 904 ft | 12 kts | 1° |
| 2026-04-22 02:20 | 43.04057 | -81.16012 | 906 ft | 0 kts | 7° |
| 2026-04-22 02:23 | 43.04076 | -81.16009 | 907 ft | 14 kts | 8° |
| 2026-04-22 02:23 | 43.04140 | -81.15917 | 907 ft | 12 kts | 99° |
| 2026-04-22 02:23 | 43.04022 | -81.15756 | 903 ft | 47 kts | 138° |
| 2026-04-22 02:23 | 43.03714 | -81.15409 | 1013 ft | 61 kts | 137° |
| 2026-04-22 02:24 | 43.03368 | -81.15027 | 1159 ft | 67 kts | 139° |
| 2026-04-22 02:24 | 43.03001 | -81.14623 | 1337 ft | 67 kts | 141° |
| 2026-04-22 02:24 | 43.02671 | -81.14170 | 1501 ft | 70 kts | 139° |
| 2026-04-22 02:24 | 43.02332 | -81.13669 | 1686 ft | 74 kts | 142° |
| 2026-04-22 02:25 | 43.01963 | -81.13113 | 1806 ft | 83 kts | 146° |
| 2026-04-22 02:25 | 43.01566 | -81.12500 | 1878 ft | 92 kts | 148° |
| 2026-04-22 02:25 | 43.01100 | -81.11873 | 1938 ft | 96 kts | 151° |
| 2026-04-22 02:25 | 43.00599 | -81.11257 | 2006 ft | 96 kts | 156° |
| 2026-04-22 02:26 | 43.00080 | -81.10653 | 2082 ft | 103 kts | 145° |
| 2026-04-22 02:26 | 42.99995 | -81.09659 | 2220 ft | 113 kts | 69° |
| 2026-04-22 02:26 | 43.00354 | -81.08713 | 2241 ft | 119 kts | 56° |
| 2026-04-22 02:26 | 43.00836 | -81.07793 | 2283 ft | 118 kts | 44° |
| 2026-04-22 02:27 | 43.01479 | -81.07393 | 2327 ft | 92 kts | 333° |
| 2026-04-22 02:27 | 43.02094 | -81.07613 | 2361 ft | 91 kts | 327° |
| 2026-04-22 02:27 | 43.02682 | -81.07937 | 2353 ft | 93 kts | 321° |
| 2026-04-22 02:27 | 43.03261 | -81.08326 | 2386 ft | 91 kts | 317° |
| 2026-04-22 02:28 | 43.03620 | -81.08603 | 2431 ft | 89 kts | 315° |
| 2026-04-22 02:28 | 43.04161 | -81.09030 | 2438 ft | 92 kts | 316° |
| 2026-04-22 02:28 | 43.04708 | -81.09495 | 2424 ft | 90 kts | 316° |
| 2026-04-22 02:28 | 43.05246 | -81.09907 | 2428 ft | 90 kts | 317° |
| 2026-04-22 02:29 | 43.05770 | -81.10354 | 2400 ft | 88 kts | 312° |
| 2026-04-22 02:29 | 43.06266 | -81.10854 | 2363 ft | 88 kts | 308° |
| 2026-04-22 02:29 | 43.06727 | -81.11394 | 2345 ft | 86 kts | 306° |
| 2026-04-22 02:29 | 43.07160 | -81.11942 | 2344 ft | 84 kts | 304° |
| 2026-04-22 02:30 | 43.07565 | -81.12517 | 2274 ft | 85 kts | 296° |
| 2026-04-22 02:30 | 43.07897 | -81.13172 | 2239 ft | 81 kts | 290° |
| 2026-04-22 02:30 | 43.08163 | -81.13850 | 2196 ft | 80 kts | 285° |
| 2026-04-22 02:30 | 43.08330 | -81.14551 | 2164 ft | 75 kts | 269° |
| 2026-04-22 02:31 | 43.08253 | -81.15240 | 2132 ft | 75 kts | 252° |
| 2026-04-22 02:31 | 43.08049 | -81.15881 | 2141 ft | 73 kts | 240° |
| 2026-04-22 02:31 | 43.07752 | -81.16448 | 2142 ft | 74 kts | 236° |
| 2026-04-22 02:31 | 43.07379 | -81.16953 | 2098 ft | 78 kts | 227° |
| 2026-04-22 02:32 | 43.06956 | -81.17425 | 2073 ft | 78 kts | 224° |
| 2026-04-22 02:32 | 43.06400 | -81.17653 | 2003 ft | 90 kts | 196° |
| 2026-04-22 02:32 | 43.05767 | -81.17488 | 1886 ft | 92 kts | 179° |
| 2026-04-22 02:32 | 43.05267 | -81.17165 | 1607 ft | 65 kts | 170° |
| 2026-04-22 02:33 | 43.04894 | -81.16869 | 1373 ft | 60 kts | 162° |
| 2026-04-22 02:33 | 43.04595 | -81.16484 | 1157 ft | 54 kts | 142° |
| 2026-04-22 02:33 | 43.04354 | -81.16179 | 1022 ft | 37 kts | 132° |
| 2026-04-22 02:33 | 43.04194 | -81.15971 | 907 ft | 24 kts | 139° |
| 2026-04-22 02:34 | 43.04103 | -81.15911 | 906 ft | 9 kts | 235° |
| 2026-04-22 02:34 | 43.04102 | -81.15940 | 907 ft | 0 kts | 262° |